sensor_id;sensor_type;location;lat;lon;timestamp;temperature;humidity
3402;DHT22;1714;49.756;8.610;2023-06-22T00:07:48;23.50;1.00
3402;DHT22;1714;49.756;8.610;2023-06-22T00:18:23;23.50;1.00
3402;DHT22;1714;49.756;8.610;2023-06-22T00:29:03;23.50;1.00
3402;DHT22;1714;49.756;8.610;2023-06-22T00:39:38;23.40;1.00
3402;DHT22;1714;49.756;8.610;2023-06-22T00:50:18;23.30;1.00
3402;DHT22;1714;49.756;8.610;2023-06-22T01:00:55;23.20;1.00
3402;DHT22;1714;49.756;8.610;2023-06-22T01:11:45;23.00;1.00
3402;DHT22;1714;49.756;8.610;2023-06-22T01:22:28;22.90;1.00
3402;DHT22;1714;49.756;8.610;2023-06-22T01:33:05;22.60;1.00
3402;DHT22;1714;49.756;8.610;2023-06-22T01:43:40;22.40;1.00
3402;DHT22;1714;49.756;8.610;2023-06-22T01:54:16;22.30;1.00
3402;DHT22;1714;49.756;8.610;2023-06-22T02:04:59;21.90;1.00
3402;DHT22;1714;49.756;8.610;2023-06-22T02:15:37;22.30;1.00
3402;DHT22;1714;49.756;8.610;2023-06-22T02:26:15;22.20;1.00
3402;DHT22;1714;49.756;8.610;2023-06-22T02:36:50;22.30;1.00
3402;DHT22;1714;49.756;8.610;2023-06-22T02:47:26;22.10;1.00
3402;DHT22;1714;49.756;8.610;2023-06-22T02:58:01;21.80;1.00
3402;DHT22;1714;49.756;8.610;2023-06-22T03:08:42;21.90;1.00
3402;DHT22;1714;49.756;8.610;2023-06-22T03:19:17;21.70;1.00
3402;DHT22;1714;49.756;8.610;2023-06-22T03:29:53;21.60;1.00
3402;DHT22;1714;49.756;8.610;2023-06-22T03:40:29;21.50;1.00
3402;DHT22;1714;49.756;8.610;2023-06-22T03:51:06;21.40;1.10
3402;DHT22;1714;49.756;8.610;2023-06-22T04:01:40;21.40;1.60
3402;DHT22;1714;49.756;8.610;2023-06-22T04:12:15;21.50;1.00
3402;DHT22;1714;49.756;8.610;2023-06-22T04:22:50;21.50;1.80
3402;DHT22;1714;49.756;8.610;2023-06-22T04:33:25;21.50;1.80
3402;DHT22;1714;49.756;8.610;2023-06-22T04:44:00;21.70;2.10
3402;DHT22;1714;49.756;8.610;2023-06-22T04:54:35;21.70;3.30
3402;DHT22;1714;49.756;8.610;2023-06-22T05:05:10;21.60;3.30
3402;DHT22;1714;49.756;8.610;2023-06-22T05:15:48;21.80;1.70
3402;DHT22;1714;49.756;8.610;2023-06-22T05:26:23;22.00;3.20
3402;DHT22;1714;49.756;8.610;2023-06-22T05:36:59;22.00;4.00
3402;DHT22;1714;49.756;8.610;2023-06-22T05:47:34;22.10;3.00
3402;DHT22;1714;49.756;8.610;2023-06-22T05:58:09;22.30;1.00
3402;DHT22;1714;49.756;8.610;2023-06-22T06:08:44;22.40;1.00
3402;DHT22;1714;49.756;8.610;2023-06-22T06:19:19;22.60;1.00
3402;DHT22;1714;49.756;8.610;2023-06-22T06:29:54;22.90;1.00
3402;DHT22;1714;49.756;8.610;2023-06-22T06:40:29;23.10;1.00
3402;DHT22;1714;49.756;8.610;2023-06-22T06:51:05;23.30;1.00
3402;DHT22;1714;49.756;8.610;2023-06-22T07:01:40;23.80;1.00
3402;DHT22;1714;49.756;8.610;2023-06-22T07:12:14;24.10;1.00
3402;DHT22;1714;49.756;8.610;2023-06-22T07:22:51;24.40;1.00
3402;DHT22;1714;49.756;8.610;2023-06-22T07:33:25;24.60;1.00
3402;DHT22;1714;49.756;8.610;2023-06-22T07:44:00;25.10;1.00
3402;DHT22;1714;49.756;8.610;2023-06-22T07:54:35;26.20;1.00
3402;DHT22;1714;49.756;8.610;2023-06-22T08:05:10;27.40;1.00
3402;DHT22;1714;49.756;8.610;2023-06-22T08:15:55;28.00;1.00
3402;DHT22;1714;49.756;8.610;2023-06-22T08:26:30;28.60;1.00
3402;DHT22;1714;49.756;8.610;2023-06-22T08:37:05;29.00;1.00
3402;DHT22;1714;49.756;8.610;2023-06-22T08:47:41;29.30;1.00
3402;DHT22;1714;49.756;8.610;2023-06-22T08:58:16;30.00;1.00
3402;DHT22;1714;49.756;8.610;2023-06-22T09:08:52;30.20;1.00
3402;DHT22;1714;49.756;8.610;2023-06-22T09:19:27;29.80;1.00
3402;DHT22;1714;49.756;8.610;2023-06-22T09:30:03;30.80;1.00
3402;DHT22;1714;49.756;8.610;2023-06-22T09:40:41;30.90;1.00
3402;DHT22;1714;49.756;8.610;2023-06-22T09:51:20;32.00;1.00
3402;DHT22;1714;49.756;8.610;2023-06-22T10:02:00;32.10;1.00
3402;DHT22;1714;49.756;8.610;2023-06-22T10:12:42;33.10;1.00
3402;DHT22;1714;49.756;8.610;2023-06-22T10:23:19;33.40;1.00
3402;DHT22;1714;49.756;8.610;2023-06-22T10:33:54;33.80;1.00
3402;DHT22;1714;49.756;8.610;2023-06-22T10:44:29;34.60;1.00
3402;DHT22;1714;49.756;8.610;2023-06-22T10:55:05;35.00;1.00
3402;DHT22;1714;49.756;8.610;2023-06-22T11:05:40;35.30;1.00
3402;DHT22;1714;49.756;8.610;2023-06-22T11:16:16;36.00;1.00
3402;DHT22;1714;49.756;8.610;2023-06-22T11:26:51;36.30;1.00
3402;DHT22;1714;49.756;8.610;2023-06-22T11:37:25;36.80;1.00
3402;DHT22;1714;49.756;8.610;2023-06-22T11:48:00;35.70;1.00
3402;DHT22;1714;49.756;8.610;2023-06-22T11:58:35;35.60;1.00
3402;DHT22;1714;49.756;8.610;2023-06-22T12:09:10;36.10;1.00
3402;DHT22;1714;49.756;8.610;2023-06-22T12:19:44;36.10;1.00
3402;DHT22;1714;49.756;8.610;2023-06-22T12:30:19;35.90;1.00
3402;DHT22;1714;49.756;8.610;2023-06-22T12:40:54;35.50;1.00
3402;DHT22;1714;49.756;8.610;2023-06-22T12:51:29;35.10;1.00
3402;DHT22;1714;49.756;8.610;2023-06-22T13:02:04;35.80;1.00
3402;DHT22;1714;49.756;8.610;2023-06-22T13:12:39;36.10;1.00
3402;DHT22;1714;49.756;8.610;2023-06-22T13:23:14;36.00;1.00
3402;DHT22;1714;49.756;8.610;2023-06-22T13:33:49;36.10;1.00
3402;DHT22;1714;49.756;8.610;2023-06-22T13:44:26;35.90;1.00
3402;DHT22;1714;49.756;8.610;2023-06-22T13:55:03;36.50;1.00
3402;DHT22;1714;49.756;8.610;2023-06-22T14:05:41;36.60;1.00
3402;DHT22;1714;49.756;8.610;2023-06-22T14:16:15;36.90;1.00
3402;DHT22;1714;49.756;8.610;2023-06-22T14:26:50;36.80;1.00
3402;DHT22;1714;49.756;8.610;2023-06-22T14:37:25;37.20;1.00
3402;DHT22;1714;49.756;8.610;2023-06-22T14:47:59;36.40;1.00
3402;DHT22;1714;49.756;8.610;2023-06-22T14:58:34;34.90;1.00
3402;DHT22;1714;49.756;8.610;2023-06-22T15:09:12;35.20;1.00
3402;DHT22;1714;49.756;8.610;2023-06-22T15:19:47;34.90;1.00
3402;DHT22;1714;49.756;8.610;2023-06-22T15:30:21;34.30;1.00
3402;DHT22;1714;49.756;8.610;2023-06-22T15:40:56;34.30;1.00
3402;DHT22;1714;49.756;8.610;2023-06-22T15:51:31;34.50;1.00
3402;DHT22;1714;49.756;8.610;2023-06-22T16:02:07;33.30;1.00
3402;DHT22;1714;49.756;8.610;2023-06-22T16:12:43;32.10;1.00
3402;DHT22;1714;49.756;8.610;2023-06-22T16:23:20;31.60;1.00
3402;DHT22;1714;49.756;8.610;2023-06-22T16:33:55;31.20;1.00
3402;DHT22;1714;49.756;8.610;2023-06-22T16:44:30;30.70;1.00
3402;DHT22;1714;49.756;8.610;2023-06-22T16:55:09;30.80;1.00
3402;DHT22;1714;49.756;8.610;2023-06-22T17:05:44;30.20;1.00
3402;DHT22;1714;49.756;8.610;2023-06-22T17:16:19;27.70;1.00
3402;DHT22;1714;49.756;8.610;2023-06-22T17:26:54;27.00;1.00
3402;DHT22;1714;49.756;8.610;2023-06-22T17:37:33;27.20;1.00
3402;DHT22;1714;49.756;8.610;2023-06-22T17:48:09;26.80;1.00
3402;DHT22;1714;49.756;8.610;2023-06-22T17:58:51;26.50;1.00
3402;DHT22;1714;49.756;8.610;2023-06-22T18:09:26;26.60;1.00
3402;DHT22;1714;49.756;8.610;2023-06-22T18:20:05;26.60;1.00
3402;DHT22;1714;49.756;8.610;2023-06-22T18:30:44;26.30;1.00
3402;DHT22;1714;49.756;8.610;2023-06-22T18:41:24;26.50;1.00
3402;DHT22;1714;49.756;8.610;2023-06-22T19:02:45;26.20;1.00
3402;DHT22;1714;49.756;8.610;2023-06-22T19:13:30;26.10;1.00
3402;DHT22;1714;49.756;8.610;2023-06-22T19:24:05;26.10;1.00
3402;DHT22;1714;49.756;8.610;2023-06-22T19:34:45;26.10;1.00
3402;DHT22;1714;49.756;8.610;2023-06-22T19:45:22;26.00;1.00
3402;DHT22;1714;49.756;8.610;2023-06-22T19:55:57;25.90;1.00
3402;DHT22;1714;49.756;8.610;2023-06-22T20:06:32;25.60;1.00
3402;DHT22;1714;49.756;8.610;2023-06-22T20:17:14;25.40;1.00
3402;DHT22;1714;49.756;8.610;2023-06-22T20:27:50;24.90;1.00
3402;DHT22;1714;49.756;8.610;2023-06-22T20:38:32;24.60;1.00
3402;DHT22;1714;49.756;8.610;2023-06-22T20:49:08;24.10;1.00
3402;DHT22;1714;49.756;8.610;2023-06-22T20:59:43;23.90;1.00
3402;DHT22;1714;49.756;8.610;2023-06-22T21:10:17;23.90;1.00
3402;DHT22;1714;49.756;8.610;2023-06-22T21:20:52;23.90;1.00
3402;DHT22;1714;49.756;8.610;2023-06-22T21:31:27;23.40;1.00
3402;DHT22;1714;49.756;8.610;2023-06-22T21:42:02;23.40;1.00
3402;DHT22;1714;49.756;8.610;2023-06-22T21:52:37;23.20;1.00
3402;DHT22;1714;49.756;8.610;2023-06-22T22:03:11;23.10;1.00
3402;DHT22;1714;49.756;8.610;2023-06-22T22:13:46;23.10;1.00
3402;DHT22;1714;49.756;8.610;2023-06-22T22:24:21;23.00;1.00
3402;DHT22;1714;49.756;8.610;2023-06-22T22:34:55;23.00;1.00
3402;DHT22;1714;49.756;8.610;2023-06-22T22:45:29;22.70;1.00
3402;DHT22;1714;49.756;8.610;2023-06-22T22:56:06;22.60;1.00
3402;DHT22;1714;49.756;8.610;2023-06-22T23:06:40;22.50;1.00
3402;DHT22;1714;49.756;8.610;2023-06-22T23:17:16;22.00;1.00
3402;DHT22;1714;49.756;8.610;2023-06-22T23:27:53;21.90;1.00
3402;DHT22;1714;49.756;8.610;2023-06-22T23:38:28;21.70;1.00
3402;DHT22;1714;49.756;8.610;2023-06-22T23:49:02;21.70;1.00
3402;DHT22;1714;49.756;8.610;2023-06-22T23:59:37;21.70;1.00
